Time;durP1;ratioP1;P1;durP2;ratioP2;P2;SDS_P1;SDS_P2;PMS_P1;PMS_P2;Temp;Humidity;BMP_temperature;BMP_pressure;BME280_temperature;BME280_humidity;BME280_pressure;Samples;Min_cycle;Max_cycle;Signal;HPM_P1;HPM_P2
2022/07/09 00:02:04;;;;;;;9.30;3.40;;;;;;;19.88;63.36;101717.25;10352686;28;20205;-87
2022/07/09 00:07:08;;;;;;;5.05;3.33;;;;;;;20.47;60.83;101710.75;10368284;28;20240;-91
2022/07/09 00:12:11;;;;;;;5.35;3.30;;;;;;;19.50;64.68;101705.59;10328717;28;20208;-84
2022/07/09 00:17:14;;;;;;;8.25;3.65;;;;;;;20.02;63.38;101704.56;10352927;28;20557;-93
2022/07/09 00:22:16;;;;;;;6.22;3.38;;;;;;;20.25;62.67;101696.72;10341829;28;20726;-93
2022/07/09 00:27:20;;;;;;;4.07;3.28;;;;;;;20.31;61.99;101703.91;10349576;28;20193;-91
2022/07/09 00:32:23;;;;;;;11.13;3.35;;;;;;;20.30;61.99;101702.25;10391309;28;20229;-93
2022/07/09 00:37:25;;;;;;;5.05;3.10;;;;;;;20.20;62.05;101696.91;10421118;28;20246;-90
2022/07/09 00:42:28;;;;;;;5.30;3.10;;;;;;;20.24;61.91;101702.75;10403708;28;20200;-86
2022/07/09 00:47:30;;;;;;;7.22;3.40;;;;;;;20.05;62.93;101701.06;10403690;28;20292;-86
2022/07/09 00:52:35;;;;;;;6.35;3.72;;;;;;;20.05;63.00;101695.38;10420507;28;20193;-92
2022/07/09 00:57:39;;;;;;;6.68;3.47;;;;;;;20.14;62.29;101686.88;10419869;28;20227;-91
2022/07/09 01:02:41;;;;;;;5.45;3.15;;;;;;;20.02;63.03;101678.19;10386369;28;20458;-92
2022/07/09 01:07:44;;;;;;;5.70;3.47;;;;;;;20.04;62.59;101673.00;10402929;28;20259;-85
2022/07/09 01:12:47;;;;;;;4.35;3.20;;;;;;;19.67;64.43;101680.97;10435624;28;20201;-91
2022/07/09 01:17:52;;;;;;;7.78;3.42;;;;;;;19.71;63.96;101673.47;10403423;28;20197;-88
2022/07/09 01:22:57;;;;;;;4.30;3.55;;;;;;;19.83;63.90;101674.84;10386563;28;20193;-90
2022/07/09 01:28:00;;;;;;;6.25;3.33;;;;;;;19.69;64.34;101672.94;10371581;28;20192;-92
2022/07/09 01:33:04;;;;;;;6.40;3.17;;;;;;;19.68;64.51;101674.13;10411333;28;20181;-93
2022/07/09 01:38:06;;;;;;;7.47;3.35;;;;;;;19.59;64.76;101669.59;10410658;28;20266;-90
2022/07/09 01:43:09;;;;;;;5.32;3.28;;;;;;;19.32;65.95;101670.69;10394816;28;20188;-93
2022/07/09 01:48:11;;;;;;;4.05;2.92;;;;;;;19.39;65.46;101665.38;10410342;28;20185;-93
2022/07/09 01:53:14;;;;;;;5.72;3.22;;;;;;;19.47;64.69;101656.03;10418662;28;20251;-89
2022/07/09 01:58:16;;;;;;;3.45;2.95;;;;;;;19.19;65.79;101648.97;10384312;28;20201;-86
2022/07/09 02:03:19;;;;;;;5.72;3.53;;;;;;;19.14;66.14;101643.44;10425489;28;20185;-93
2022/07/09 02:08:22;;;;;;;5.97;3.30;;;;;;;19.32;65.42;101645.16;10392958;28;20257;-87
2022/07/09 02:13:26;;;;;;;7.20;3.75;;;;;;;19.22;65.91;101642.63;10422782;28;20188;-87
2022/07/09 02:18:28;;;;;;;5.47;4.10;;;;;;;19.29;66.00;101642.97;10397465;28;20217;-85
2022/07/09 02:23:31;;;;;;;7.10;3.78;;;;;;;19.24;66.21;101643.97;10412861;28;20205;-85
2022/07/09 02:28:33;;;;;;;10.15;4.47;;;;;;;19.19;66.49;101635.63;10414911;28;20532;-91
2022/07/09 02:33:36;;;;;;;5.88;4.13;;;;;;;19.31;66.05;101643.50;10394822;28;20596;-92
2022/07/09 02:38:39;;;;;;;6.85;4.00;;;;;;;19.35;66.01;101638.81;10408447;28;20618;-84
2022/07/09 02:43:44;;;;;;;8.88;4.32;;;;;;;19.44;66.28;101639.69;10336292;28;20267;-84
2022/07/09 02:48:46;;;;;;;6.05;4.40;;;;;;;19.27;67.04;101634.81;10341742;28;20193;-87
2022/07/09 02:53:49;;;;;;;6.68;4.13;;;;;;;19.51;65.94;101636.34;10365395;28;20201;-85
2022/07/09 02:58:51;;;;;;;8.07;4.50;;;;;;;19.22;67.43;101637.78;10367506;28;20573;-85
2022/07/09 03:03:54;;;;;;;7.32;4.43;;;;;;;19.46;66.77;101635.34;10363927;28;20217;-85
2022/07/09 03:08:56;;;;;;;6.10;4.00;;;;;;;19.30;67.61;101633.31;10350888;28;20459;-84
2022/07/09 03:13:59;;;;;;;6.72;4.43;;;;;;;19.42;67.52;101623.00;10388432;28;20209;-85
2022/07/09 03:19:01;;;;;;;7.30;4.95;;;;;;;19.78;66.21;101628.41;10368613;28;20241;-84
2022/07/09 03:24:04;;;;;;;7.22;4.43;;;;;;;19.95;64.78;101613.38;10361354;28;20201;-86
2022/07/09 03:29:07;;;;;;;5.28;4.57;;;;;;;19.67;66.58;101618.53;10378209;28;20280;-86
2022/07/09 03:34:09;;;;;;;9.18;4.97;;;;;;;19.54;66.99;101625.19;10381386;28;20192;-84
2022/07/09 03:39:11;;;;;;;10.18;5.32;;;;;;;19.57;67.66;101624.53;10356407;28;20278;-86
2022/07/09 03:44:14;;;;;;;7.03;4.72;;;;;;;19.58;67.81;101623.38;10349186;28;20231;-85
2022/07/09 03:49:16;;;;;;;8.50;4.97;;;;;;;20.03;65.85;101611.69;10382692;28;20545;-84
2022/07/09 03:54:19;;;;;;;9.20;4.60;;;;;;;20.15;64.83;101615.53;10350841;28;20193;-84
2022/07/09 03:59:21;;;;;;;9.13;4.55;;;;;;;19.69;67.25;101618.19;10381533;28;20190;-85
2022/07/09 04:04:24;;;;;;;6.22;4.60;;;;;;;19.93;66.25;101607.22;10399701;28;20255;-84
2022/07/09 04:09:27;;;;;;;7.93;4.82;;;;;;;19.92;66.35;101616.88;10399939;28;20196;-84
2022/07/09 04:14:29;;;;;;;8.73;4.95;;;;;;;20.10;65.65;101612.06;10365242;28;20239;-84
2022/07/09 04:19:32;;;;;;;7.95;5.18;;;;;;;20.20;65.69;101617.38;10363811;28;20193;-84
2022/07/09 04:24:34;;;;;;;9.15;5.20;;;;;;;20.26;64.78;101609.50;10361906;28;20200;-84
2022/07/09 04:29:36;;;;;;;8.85;4.85;;;;;;;20.05;65.84;101609.38;10390374;28;20216;-84
2022/07/09 04:34:39;;;;;;;6.22;4.82;;;;;;;20.08;66.48;101597.34;10379907;28;20204;-86
2022/07/09 04:39:41;;;;;;;10.20;5.38;;;;;;;20.18;66.18;101605.50;10365211;28;20196;-84
2022/07/09 04:44:43;;;;;;;6.97;5.00;;;;;;;20.12;67.36;101621.03;10375219;28;20220;-83
2022/07/09 04:49:46;;;;;;;5.70;4.65;;;;;;;20.27;67.35;101614.84;10367351;28;20200;-84
2022/07/09 04:54:48;;;;;;;9.15;5.50;;;;;;;20.25;67.13;101620.03;10399426;28;20201;-85
2022/07/09 04:59:51;;;;;;;6.55;5.22;;;;;;;20.00;68.50;101618.03;10398587;28;20240;-85
2022/07/09 05:04:53;;;;;;;11.43;4.93;;;;;;;19.95;69.32;101621.06;10367101;28;20220;-85
2022/07/09 05:09:56;;;;;;;6.47;5.45;;;;;;;19.67;69.09;101621.38;10401133;28;20230;-86
2022/07/09 05:14:58;;;;;;;9.38;5.35;;;;;;;19.84;69.13;101631.09;10374233;28;20212;-84
2022/07/09 05:20:05;;;;;;;11.40;5.22;;;;;;;20.05;68.63;101626.41;10342461;28;20228;-83
2022/07/09 05:25:08;;;;;;;7.32;4.20;;;;;;;19.36;72.19;101646.16;10402756;28;20719;-84
2022/07/09 05:30:13;;;;;;;9.32;5.38;;;;;;;19.90;71.38;101635.41;10346987;28;20220;-84
2022/07/09 05:35:21;;;;;;;8.98;5.15;;;;;;;19.90;71.57;101629.75;10342307;28;20503;-84
2022/07/09 05:40:23;;;;;;;5.78;4.78;;;;;;;19.76;72.19;101639.25;10381393;28;20200;-84
2022/07/09 05:45:25;;;;;;;9.00;5.85;;;;;;;19.41;72.11;101640.34;10337267;28;20510;-84
2022/07/09 05:50:28;;;;;;;6.72;4.70;;;;;;;19.84;69.87;101633.94;10337509;28;20255;-84
2022/07/09 05:55:31;;;;;;;8.82;4.82;;;;;;;20.21;69.08;101619.03;10356253;28;20221;-84
2022/07/09 06:00:33;;;;;;;5.38;2.88;;;;;;;19.70;69.61;101632.06;10382723;28;20197;-85
2022/07/09 06:05:36;;;;;;;5.93;2.90;;;;;;;19.65;68.40;101631.38;10388002;28;20208;-88
2022/07/09 06:10:38;;;;;;;5.72;1.70;;;;;;;19.43;67.70;101633.19;10365903;28;20490;-85
2022/07/09 06:15:40;;;;;;;2.70;1.80;;;;;;;19.32;68.62;101628.16;10349656;28;20279;-86
2022/07/09 06:20:43;;;;;;;4.03;2.13;;;;;;;19.49;67.53;101633.84;10378868;28;20228;-85
2022/07/09 06:25:45;;;;;;;4.68;2.55;;;;;;;19.52;68.56;101636.03;10363244;28;20228;-84
2022/07/09 06:30:48;;;;;;;4.32;2.40;;;;;;;20.57;64.56;101623.50;10408545;28;20617;-85
2022/07/09 06:35:50;;;;;;;3.33;1.85;;;;;;;21.10;62.84;101618.13;10402956;28;20212;-85
2022/07/09 06:40:56;;;;;;;2.42;1.42;;;;;;;20.45;61.64;101624.19;10381531;28;20200;-85
2022/07/09 06:45:58;;;;;;;3.33;1.23;;;;;;;20.49;61.46;101620.34;10421461;28;20189;-85
2022/07/09 06:51:01;;;;;;;1.92;1.38;;;;;;;20.14;63.56;101625.22;10365123;28;20200;-83
2022/07/09 06:56:03;;;;;;;1.85;1.08;;;;;;;21.09;60.93;101622.13;10390311;28;20216;-84
2022/07/09 07:01:06;;;;;;;2.45;1.13;;;;;;;21.83;57.45;101617.81;10387912;28;20204;-84
2022/07/09 07:06:08;;;;;;;1.95;1.00;;;;;;;21.45;58.51;101618.75;10396311;28;20213;-87
2022/07/09 07:11:13;;;;;;;1.92;0.63;;;;;;;21.06;58.63;101619.13;10397726;28;20259;-87
2022/07/09 07:16:15;;;;;;;1.75;0.60;;;;;;;21.39;57.30;101619.31;10355947;28;20283;-83
2022/07/09 07:21:18;;;;;;;0.68;0.60;;;;;;;21.74;55.39;101611.38;10373483;28;20626;-83
2022/07/09 07:26:21;;;;;;;0.55;0.40;;;;;;;21.34;55.84;101616.66;10402890;28;20304;-84
2022/07/09 07:31:24;;;;;;;2.65;0.57;;;;;;;20.43;58.03;101618.81;10368898;28;20220;-84
2022/07/09 07:36:27;;;;;;;0.75;0.65;;;;;;;22.32;54.05;101601.78;10378840;28;20217;-84
2022/07/09 07:41:29;;;;;;;0.93;0.30;;;;;;;22.52;51.84;101606.63;10376510;28;20601;-83
2022/07/09 07:46:32;;;;;;;0.50;0.38;;;;;;;22.29;52.72;101602.53;10391148;28;20185;-84
2022/07/09 07:51:34;;;;;;;0.30;0.30;;;;;;;22.33;52.97;101609.16;10387177;28;20558;-83
2022/07/09 07:56:39;;;;;;;3.15;0.65;;;;;;;22.47;50.83;101601.13;10392215;28;20213;-85
2022/07/09 08:01:41;;;;;;;0.70;0.60;;;;;;;21.97;52.94;101612.69;10389221;28;20200;-85
2022/07/09 08:06:44;;;;;;;1.05;0.65;;;;;;;22.37;51.22;101604.44;10377736;28;20209;-85
2022/07/09 08:11:46;;;;;;;1.45;0.57;;;;;;;22.78;51.55;101602.66;10375334;28;20205;-84
2022/07/09 08:16:49;;;;;;;1.80;0.70;;;;;;;22.30;51.87;101597.66;10371882;28;20498;-84
2022/07/09 08:21:51;;;;;;;0.88;0.82;;;;;;;23.15;49.40;101589.25;10344700;28;20193;-85
2022/07/09 08:26:54;;;;;;;1.33;1.00;;;;;;;23.06;50.06;101569.41;10360827;28;20197;-84
2022/07/09 08:31:56;;;;;;;1.25;0.68;;;;;;;24.14;47.47;101557.25;10377938;28;20271;-85
2022/07/09 08:36:59;;;;;;;2.70;0.60;;;;;;;23.77;47.68;101556.53;10369656;28;20209;-85
2022/07/09 08:42:02;;;;;;;1.10;0.50;;;;;;;23.53;47.96;101560.31;10355872;28;20197;-84
2022/07/09 08:47:05;;;;;;;2.15;0.63;;;;;;;24.30;46.10;101549.53;10342536;28;20490;-83
2022/07/09 08:52:09;;;;;;;2.72;0.50;;;;;;;24.33;47.26;101546.78;10392729;28;20475;-84
2022/07/09 08:57:11;;;;;;;1.27;0.60;;;;;;;24.13;46.83;101542.16;10363068;28;20271;-85
2022/07/09 09:02:14;;;;;;;2.40;0.43;;;;;;;23.91;45.73;101542.69;10355440;28;20506;-84
2022/07/09 09:07:18;;;;;;;0.50;0.50;;;;;;;24.58;45.02;101538.91;10401500;28;20502;-85
2022/07/09 09:12:28;;;;;;;0.90;0.47;;;;;;;24.71;44.12;101528.22;10376085;28;20307;-73
2022/07/09 09:17:30;;;;;;;2.85;0.50;;;;;;;24.72;43.63;101522.13;10393871;28;20265;-84
2022/07/09 09:22:32;;;;;;;1.05;0.50;;;;;;;24.53;44.02;101527.69;10357059;28;20667;-85
2022/07/09 09:27:35;;;;;;;0.60;0.40;;;;;;;25.94;39.46;101520.88;10324948;28;20312;-84
2022/07/09 09:32:37;;;;;;;2.20;0.40;;;;;;;25.36;41.42;101512.22;10363495;28;20233;-84
2022/07/09 09:37:42;;;;;;;1.27;0.63;;;;;;;24.05;43.81;101520.28;10346947;28;20267;-84
2022/07/09 09:42:45;;;;;;;0.57;0.40;;;;;;;24.53;43.11;101519.13;10382080;28;20201;-85
2022/07/09 09:47:52;;;;;;;28.55;23.25;;;;;;;23.80;44.70;101512.97;10386125;28;20213;-87
2022/07/09 09:52:54;;;;;;;1.95;0.70;;;;;;;24.03;45.10;101517.78;10395108;28;20193;-88
2022/07/09 09:57:56;;;;;;;1.08;0.57;;;;;;;21.98;48.46;101514.69;10366964;28;20217;-87
2022/07/09 10:03:01;;;;;;;1.85;1.75;;;;;;;24.44;43.87;101504.19;10403473;28;20205;-88
2022/07/09 10:08:05;;;;;;;0.75;0.55;;;;;;;23.66;44.04;101502.81;10345809;28;20279;-87
2022/07/09 10:13:19;;;;;;;1.55;0.75;;;;;;;24.34;43.62;101496.16;10372899;28;20201;-88
2022/07/09 10:18:21;;;;;;;1.95;1.10;;;;;;;23.47;45.55;101496.09;10386387;28;20870;-86
2022/07/09 10:23:24;;;;;;;3.45;0.88;;;;;;;23.95;44.51;101487.34;10390431;28;20208;-87
2022/07/09 10:28:27;;;;;;;5.00;1.10;;;;;;;22.80;47.20;101492.75;10379126;28;20456;-88
2022/07/09 10:33:35;;;;;;;2.00;1.08;;;;;;;24.50;44.95;101494.16;10354872;28;20227;-89
2022/07/09 10:38:38;;;;;;;1.70;0.63;;;;;;;23.68;44.32;101493.88;10365365;28;21047;-87
2022/07/09 10:43:47;;;;;;;2.67;1.40;;;;;;;24.45;42.49;101477.25;10349215;28;20509;-88
2022/07/09 10:48:49;;;;;;;2.47;1.00;;;;;;;24.77;41.74;101477.28;10357378;28;20549;-86
2022/07/09 10:53:52;;;;;;;2.28;1.00;;;;;;;24.45;43.80;101471.53;10346080;28;20258;-89
2022/07/09 10:58:56;;;;;;;1.02;0.43;;;;;;;24.65;41.67;101464.72;10408234;28;20229;-88
2022/07/09 11:03:58;;;;;;;1.85;0.70;;;;;;;24.63;42.61;101472.03;10385552;28;20274;-88
2022/07/09 11:09:11;;;;;;;2.92;1.80;;;;;;;23.73;44.60;101479.34;10410045;28;20274;-87
2022/07/09 11:14:14;;;;;;;4.57;0.80;;;;;;;24.63;42.37;101461.41;10381913;28;20274;-88
2022/07/09 11:19:18;;;;;;;1.38;1.05;;;;;;;25.10;41.91;101457.63;10397809;28;20224;-87
2022/07/09 11:24:24;;;;;;;3.40;1.27;;;;;;;24.86;41.42;101452.97;10330898;28;20197;-88
2022/07/09 11:29:27;;;;;;;3.80;1.02;;;;;;;25.31;42.05;101440.94;10360726;28;20225;-87
2022/07/09 11:34:29;;;;;;;3.60;1.10;;;;;;;25.03;42.06;101443.16;10329532;28;20598;-88
2022/07/09 11:39:33;;;;;;;2.33;1.10;;;;;;;24.26;43.48;101434.28;10361374;28;20217;-87
2022/07/09 11:44:36;;;;;;;2.67;1.10;;;;;;;24.56;42.41;101421.19;10380135;28;20197;-88
2022/07/09 11:49:39;;;;;;;1.95;1.08;;;;;;;25.34;40.66;101428.75;10385067;28;20232;-86
2022/07/09 11:54:54;;;;;;;5.50;1.40;;;;;;;24.66;42.27;101403.44;10401773;28;20250;-88
2022/07/09 11:59:57;;;;;;;3.25;1.60;;;;;;;24.86;41.75;101406.38;10406628;28;20217;-88
2022/07/09 12:05:03;;;;;;;3.63;1.88;;;;;;;23.85;44.71;101416.44;10400913;28;20243;-88
2022/07/09 12:10:08;;;;;;;3.00;1.50;;;;;;;24.04;44.21;101410.84;10374902;28;20197;-87
2022/07/09 12:15:11;;;;;;;5.85;1.50;;;;;;;24.31;43.81;101414.81;10376810;28;20196;-88
2022/07/09 12:20:14;;;;;;;2.53;1.23;;;;;;;23.11;46.35;101417.09;10369178;28;20605;-87
2022/07/09 12:25:16;;;;;;;2.05;1.27;;;;;;;23.80;45.45;101407.28;10357649;28;20197;-88
2022/07/09 12:30:20;;;;;;;2.92;0.98;;;;;;;23.17;46.54;101410.78;10360681;28;20271;-89
2022/07/09 12:35:22;;;;;;;4.38;1.05;;;;;;;23.84;45.24;101406.22;10398863;28;20189;-88
2022/07/09 12:40:25;;;;;;;2.08;1.00;;;;;;;23.45;47.51;101395.72;10368268;28;20212;-88
2022/07/09 12:45:27;;;;;;;2.55;0.80;;;;;;;23.31;48.83;101394.13;10328636;28;20198;-88
2022/07/09 12:50:30;;;;;;;1.10;0.90;;;;;;;23.58;49.74;101386.72;10393022;28;20196;-88
2022/07/09 12:55:33;;;;;;;1.80;1.60;;;;;;;22.82;54.63;101396.25;10369411;28;20550;-87
2022/07/09 13:00:56;;;;;;;3.33;1.83;;;;;;;22.04;63.02;101429.84;10367732;28;20217;-87
2022/07/09 13:05:59;;;;;;;5.75;2.90;;;;;;;20.47;70.99;101460.72;10374077;28;20249;-86
2022/07/09 13:11:01;;;;;;;6.25;3.72;;;;;;;21.12;75.06;101469.88;10396695;28;20192;-84
2022/07/09 13:16:04;;;;;;;3.42;3.13;;;;;;;21.06;74.05;101455.00;10379593;28;20663;-87
2022/07/09 13:21:07;;;;;;;4.70;3.70;;;;;;;21.30;73.47;101450.66;10365135;28;20285;-88
2022/07/09 13:26:12;;;;;;;6.25;4.22;;;;;;;20.74;78.17;101461.44;10362851;28;20251;-87
2022/07/09 13:31:15;;;;;;;4.97;4.47;;;;;;;21.00;76.11;101447.88;10391937;28;20279;-87
2022/07/09 13:36:18;;;;;;;7.35;5.55;;;;;;;21.45;75.34;101432.97;10374954;28;20196;-86
2022/07/09 13:41:25;;;;;;;9.80;7.22;;;;;;;21.82;76.33;101409.13;10389346;28;20212;-87
2022/07/09 13:46:29;;;;;;;6.50;5.95;;;;;;;21.87;72.92;101408.06;10412696;28;20680;-85
2022/07/09 13:51:33;;;;;;;7.68;6.10;;;;;;;21.86;74.61;101389.31;10381895;28;20227;-85
2022/07/09 13:56:36;;;;;;;7.60;6.78;;;;;;;22.10;74.16;101400.78;10416399;28;20197;-84
2022/07/09 14:01:39;;;;;;;7.63;6.50;;;;;;;22.32;73.94;101399.47;10361638;28;20212;-86
2022/07/09 14:06:43;;;;;;;6.93;5.45;;;;;;;23.18;68.09;101389.63;10378601;28;20225;-84
2022/07/09 14:11:49;;;;;;;9.52;7.25;;;;;;;23.02;71.30;101394.41;10387021;28;20259;-86
2022/07/09 14:16:53;;;;;;;7.55;6.15;;;;;;;23.67;68.08;101392.25;10354229;28;20224;-88
2022/07/09 14:21:56;;;;;;;6.20;5.60;;;;;;;22.83;63.22;101383.66;10399330;28;20278;-86
2022/07/09 14:26:59;;;;;;;7.05;5.32;;;;;;;22.82;67.22;101375.47;10408780;28;20339;-86
2022/07/09 14:32:03;;;;;;;6.35;5.13;;;;;;;23.76;66.35;101370.06;10387014;28;20544;-87
2022/07/09 14:37:06;;;;;;;4.00;3.65;;;;;;;23.31;62.01;101365.56;10387287;28;20205;-88
2022/07/09 14:42:09;;;;;;;4.28;3.40;;;;;;;22.93;63.59;101368.06;10392338;28;20290;-85
2022/07/09 14:47:21;;;;;;;4.18;3.03;;;;;;;23.38;61.73;101362.06;10364085;28;20220;-87
2022/07/09 14:52:23;;;;;;;4.00;2.33;;;;;;;22.91;62.98;101359.03;10328839;28;20214;-83
2022/07/09 14:57:25;;;;;;;1.63;1.52;;;;;;;23.62;56.14;101355.41;10373650;28;20318;-86
2022/07/09 15:02:28;;;;;;;0.95;0.80;;;;;;;24.00;54.15;101352.78;10369686;28;20256;-84
2022/07/09 15:07:30;;;;;;;2.65;1.40;;;;;;;23.94;51.22;101357.13;10401875;28;20204;-86
2022/07/09 15:12:33;;;;;;;1.30;0.68;;;;;;;24.04;50.81;101347.16;10370592;28;20197;-84
2022/07/09 15:17:35;;;;;;;1.70;0.60;;;;;;;23.26;49.12;101350.69;10380113;28;20209;-86
2022/07/09 15:22:46;;;;;;;1.55;0.60;;;;;;;24.07;46.84;101348.47;10388426;28;20850;-89
2022/07/09 15:27:48;;;;;;;5.32;0.60;;;;;;;24.17;45.02;101347.88;10394535;28;20201;-84
2022/07/09 15:32:51;;;;;;;0.30;0.30;;;;;;;23.33;44.27;101351.78;10370702;28;20193;-84
2022/07/09 15:37:53;;;;;;;0.60;0.20;;;;;;;23.12;43.33;101345.41;10385424;28;20216;-82
2022/07/09 15:42:57;;;;;;;3.17;0.38;;;;;;;23.66;41.14;101339.19;10361415;28;20224;-82
2022/07/09 15:48:00;;;;;;;1.98;0.60;;;;;;;23.53;38.12;101331.91;10378219;28;20217;-82
2022/07/09 15:53:03;;;;;;;1.63;0.90;;;;;;;23.32;39.56;101335.00;10385443;28;20263;-84
2022/07/09 15:58:06;;;;;;;1.58;0.40;;;;;;;23.14;39.09;101337.31;10359944;28;20221;-83
2022/07/09 16:03:08;;;;;;;1.17;0.30;;;;;;;23.62;37.42;101329.69;10361295;28;20276;-83
2022/07/09 16:08:11;;;;;;;1.00;0.30;;;;;;;24.27;35.58;101324.44;10372174;28;20213;-85
2022/07/09 16:13:13;;;;;;;0.93;0.22;;;;;;;22.93;36.92;101313.88;10390898;28;20221;-84
2022/07/09 16:18:18;;;;;;;0.60;0.25;;;;;;;23.12;35.95;101310.31;10393698;28;20245;-86
2022/07/09 16:23:21;;;;;;;0.40;0.20;;;;;;;23.22;35.19;101313.50;10397783;28;20419;-83
2022/07/09 16:28:23;;;;;;;1.45;0.30;;;;;;;24.15;35.87;101318.84;10387421;28;20220;-84
2022/07/09 16:33:26;;;;;;;2.33;0.80;;;;;;;23.12;37.19;101316.88;10413099;28;20201;-84
2022/07/09 16:38:28;;;;;;;0.32;0.28;;;;;;;23.82;35.66;101314.34;10394661;28;20287;-85
2022/07/09 16:43:31;;;;;;;2.55;0.95;;;;;;;23.21;37.74;101319.59;10355720;28;20252;-86
2022/07/09 16:48:43;;;;;;;1.33;0.20;;;;;;;23.58;38.06;101323.06;10356645;28;20197;-85
2022/07/09 16:53:53;;;;;;;0.60;0.40;;;;;;;24.31;37.67;101329.06;10362231;28;20201;-85
2022/07/09 16:58:56;;;;;;;2.33;1.38;;;;;;;23.20;40.04;101333.00;10368270;28;20321;-84
2022/07/09 17:03:58;;;;;;;0.80;0.32;;;;;;;22.79;42.30;101339.13;10358256;28;20217;-84
2022/07/09 17:09:02;;;;;;;2.28;0.47;;;;;;;22.65;43.79;101344.38;10392796;28;20615;-85
2022/07/09 17:14:06;;;;;;;2.22;0.40;;;;;;;22.87;45.34;101338.13;10397232;28;20235;-82
2022/07/09 17:19:08;;;;;;;4.78;0.70;;;;;;;22.67;45.60;101336.28;10397267;28;20248;-82
2022/07/09 17:24:11;;;;;;;4.00;0.93;;;;;;;22.31;46.17;101343.69;10376096;28;20282;-81
2022/07/09 17:29:14;;;;;;;3.75;0.80;;;;;;;22.84;46.25;101339.66;10372658;28;20665;-88
2022/07/09 17:34:17;;;;;;;4.90;1.00;;;;;;;22.85;45.86;101358.44;10388157;28;20228;-83
2022/07/09 17:39:19;;;;;;;5.55;0.68;;;;;;;22.49;46.58;101356.47;10387833;28;20248;-84
2022/07/09 17:44:23;;;;;;;3.28;0.90;;;;;;;22.52;46.61;101355.75;10359559;28;20317;-84
2022/07/09 17:49:25;;;;;;;4.15;1.13;;;;;;;22.51;46.15;101358.97;10384246;28;20590;-83
2022/07/09 17:54:28;;;;;;;3.08;0.80;;;;;;;22.17;46.72;101357.47;10379428;28;20224;-84
2022/07/09 17:59:30;;;;;;;1.67;0.60;;;;;;;22.02;46.37;101375.25;10402132;28;20248;-84
2022/07/09 18:04:33;;;;;;;4.05;0.70;;;;;;;22.19;46.38;101366.47;10371187;28;20228;-82
2022/07/09 18:09:36;;;;;;;2.88;0.90;;;;;;;21.67;47.96;101381.31;10364913;28;20251;-84
2022/07/09 18:14:38;;;;;;;5.60;0.70;;;;;;;22.62;45.96;101386.66;10399302;28;20671;-83
2022/07/09 18:19:41;;;;;;;2.90;0.75;;;;;;;22.13;45.50;101400.06;10389149;28;20617;-84
2022/07/09 18:25:02;;;;;;;2.05;0.68;;;;;;;21.58;47.31;101400.50;10383562;28;20224;-83
2022/07/09 18:30:05;;;;;;;2.95;0.93;;;;;;;21.66;46.04;101399.59;10393669;28;20276;-83
2022/07/09 18:35:15;;;;;;;4.53;1.05;;;;;;;21.64;46.76;101401.97;10396611;28;20255;-84
2022/07/09 18:40:21;;;;;;;1.90;0.50;;;;;;;21.55;45.54;101401.22;10362209;28;20290;-85
2022/07/09 18:45:24;;;;;;;1.25;0.50;;;;;;;21.33;45.74;101407.28;10391803;28;20239;-87
2022/07/09 18:50:26;;;;;;;3.00;0.65;;;;;;;21.51;45.50;101411.66;10388040;28;20216;-86
2022/07/09 18:55:34;;;;;;;2.10;0.60;;;;;;;21.45;45.95;101424.41;10377154;28;20202;-84
2022/07/09 19:00:40;;;;;;;1.25;0.30;;;;;;;20.94;47.08;101431.34;10377529;28;20568;-88
2022/07/09 19:05:47;;;;;;;1.30;0.50;;;;;;;20.92;47.28;101440.22;10362874;28;20510;-87
2022/07/09 19:10:49;;;;;;;6.78;0.82;;;;;;;20.47;47.32;101437.16;10401403;28;20481;-86
2022/07/09 19:15:53;;;;;;;3.25;0.68;;;;;;;20.04;48.05;101446.69;10357005;28;20258;-88
2022/07/09 19:21:04;;;;;;;4.63;0.60;;;;;;;20.25;47.29;101451.59;10390963;28;20212;-83
2022/07/09 19:26:12;;;;;;;3.03;0.40;;;;;;;20.58;46.93;101457.50;10369602;28;20290;-85
2022/07/09 19:36:42;;;;;;;3.65;0.55;;;;;;;19.85;47.90;101470.97;10388882;28;20240;-84
2022/07/09 19:41:49;;;;;;;3.15;0.50;;;;;;;20.02;48.25;101479.44;10394472;28;20579;-84
2022/07/09 19:46:53;;;;;;;4.28;0.50;;;;;;;20.33;47.12;101485.69;10368520;28;20546;-85
2022/07/09 19:51:59;;;;;;;2.03;0.68;;;;;;;20.48;47.61;101499.31;10378672;28;20264;-84
2022/07/09 19:57:01;;;;;;;5.53;0.65;;;;;;;20.44;47.50;101498.31;10383468;28;20236;-85
2022/07/09 20:02:03;;;;;;;3.72;0.43;;;;;;;20.30;46.56;101503.41;10366406;28;20767;-83
2022/07/09 20:07:06;;;;;;;4.93;0.70;;;;;;;20.02;48.23;101513.50;10376717;28;20248;-83
2022/07/09 20:12:09;;;;;;;4.35;0.73;;;;;;;20.62;48.42;101516.19;10337045;28;20555;-85
2022/07/09 20:17:11;;;;;;;4.70;0.90;;;;;;;20.10;48.50;101524.03;10379725;28;20227;-83
2022/07/09 20:22:14;;;;;;;4.15;0.80;;;;;;;19.77;50.42;101537.91;10341987;28;20251;-84
2022/07/09 20:27:16;;;;;;;3.17;0.60;;;;;;;19.53;50.65;101535.56;10375631;28;20232;-84
2022/07/09 20:32:19;;;;;;;3.00;1.05;;;;;;;19.55;52.03;101533.22;10375746;28;20244;-84
2022/07/09 20:37:22;;;;;;;3.13;0.98;;;;;;;19.62;50.53;101533.53;10363282;28;20298;-84
2022/07/09 20:42:24;;;;;;;2.10;0.95;;;;;;;19.39;51.79;101546.22;10391760;28;20248;-86
2022/07/09 20:47:27;;;;;;;2.58;0.63;;;;;;;19.89;49.26;101540.06;10357643;28;20197;-86
2022/07/09 20:52:39;;;;;;;3.08;0.60;;;;;;;20.06;47.65;101542.91;10359236;28;20201;-84
2022/07/09 20:57:42;;;;;;;5.68;1.20;;;;;;;19.47;50.49;101551.06;10396303;28;20592;-84
2022/07/09 21:02:44;;;;;;;6.03;1.20;;;;;;;19.61;48.93;101551.75;10389450;28;20629;-84
2022/07/09 21:07:47;;;;;;;3.72;0.77;;;;;;;19.25;49.83;101545.53;10382009;28;20624;-84
2022/07/09 21:12:49;;;;;;;4.47;0.65;;;;;;;19.25;49.41;101548.38;10388326;28;20587;-84
2022/07/09 21:23:17;;;;;;;2.58;0.75;;;;;;;19.09;49.69;101546.00;10400224;28;20290;-84
2022/07/09 21:28:19;;;;;;;6.93;0.95;;;;;;;19.23;48.67;101547.88;10369870;28;20224;-84
2022/07/09 21:33:22;;;;;;;3.10;0.60;;;;;;;19.36;48.89;101549.72;10365620;28;20192;-84
2022/07/09 21:38:27;;;;;;;2.00;0.60;;;;;;;19.19;49.30;101553.41;10363552;28;20546;-84
2022/07/09 21:43:30;;;;;;;2.50;0.70;;;;;;;19.18;48.54;101559.38;10343460;28;20606;-85
2022/07/09 21:48:32;;;;;;;3.45;0.82;;;;;;;18.90;49.27;101544.63;10373579;28;20196;-84
2022/07/09 21:53:35;;;;;;;2.90;0.70;;;;;;;19.20;49.35;101548.56;10424108;28;20239;-84
2022/07/09 21:58:37;;;;;;;5.03;0.65;;;;;;;18.42;50.84;101561.59;10374463;28;20231;-84
2022/07/09 22:03:43;;;;;;;2.47;1.00;;;;;;;18.48;52.92;101548.94;10390147;28;20243;-83
2022/07/09 22:08:46;;;;;;;2.60;0.77;;;;;;;18.16;51.97;101545.22;10350659;28;20189;-85
2022/07/09 22:13:48;;;;;;;5.10;0.70;;;;;;;18.37;51.07;101548.41;10334055;28;20197;-84
2022/07/09 22:18:51;;;;;;;3.80;0.70;;;;;;;18.07;51.46;101537.84;10369861;28;20193;-85
2022/07/09 22:23:54;;;;;;;4.47;0.60;;;;;;;18.28;50.30;101545.53;10368141;28;20246;-84
2022/07/09 22:28:56;;;;;;;5.75;0.55;;;;;;;18.13;50.48;101548.72;10370383;28;20232;-84
2022/07/09 22:34:00;;;;;;;3.03;0.43;;;;;;;18.27;49.79;101543.84;10381643;28;20231;-84
2022/07/09 22:39:03;;;;;;;2.75;0.60;;;;;;;18.34;49.93;101549.88;10369820;28;20532;-84
2022/07/09 22:44:06;;;;;;;2.42;0.50;;;;;;;18.01;49.97;101551.31;10363334;28;20200;-84
2022/07/09 22:49:09;;;;;;;3.17;0.50;;;;;;;17.73;52.46;101558.25;10370825;28;20482;-84
2022/07/09 22:54:11;;;;;;;6.05;0.82;;;;;;;17.64;53.63;101553.34;10360603;28;20556;-84
2022/07/09 22:59:14;;;;;;;4.15;0.68;;;;;;;17.67;51.37;101549.06;10389363;28;20227;-83
2022/07/09 23:04:17;;;;;;;5.97;0.82;;;;;;;17.54;51.61;101559.25;10380907;28;20247;-84
2022/07/09 23:09:20;;;;;;;3.60;0.90;;;;;;;17.62;52.04;101550.03;10377706;28;20197;-84
2022/07/09 23:14:22;;;;;;;6.33;0.77;;;;;;;18.12;51.18;101554.72;10371035;28;20193;-83
2022/07/09 23:19:30;;;;;;;3.90;0.90;;;;;;;17.94;51.45;101562.25;10386157;28;20189;-84
2022/07/09 23:24:33;;;;;;;3.97;0.85;;;;;;;17.33;52.77;101563.69;10400210;28;20200;-84